Time;durP1;ratioP1;P1;durP2;ratioP2;P2;SDS_P1;SDS_P2;PMS_P1;PMS_P2;Temp;Humidity;BMP_temperature;BMP_pressure;BME280_temperature;BME280_humidity;BME280_pressure;Samples;Min_cycle;Max_cycle;Signal;HPM_P1;HPM_P2
2022/08/15 00:01:10;;;;;;;12.47;4.37;;;;;;;;;;1678456;83;20978;-82
2022/08/15 00:03:45;;;;;;;9.73;4.28;;;;;;;;;;1725370;83;21020;-81
2022/08/15 00:06:14;;;;;;;11.97;4.33;;;;;;;;;;1725421;83;21038;-81
2022/08/15 00:08:43;;;;;;;7.78;3.90;;;;;;;;;;1725469;81;21038;-81
2022/08/15 00:11:18;;;;;;;12.60;4.42;;;;;;;;;;1722305;83;21080;-82
2022/08/15 00:13:46;;;;;;;9.48;3.90;;;;;;;;;;1725451;83;21051;-82
2022/08/15 00:16:16;;;;;;;8.65;4.00;;;;;;;;;;1725816;81;21031;-81
2022/08/15 00:18:42;;;;;;;10.32;4.35;;;;;;;;;;1725557;83;21054;-81
2022/08/15 00:21:10;;;;;;;9.68;4.22;;;;;;;;;;1725457;83;21029;-81
2022/08/15 00:23:40;;;;;;;15.00;4.70;;;;;;;;;;1725159;83;21562;-81
2022/08/15 00:26:05;;;;;;;9.58;4.20;;;;;;;;;;1725383;81;21035;-81
2022/08/15 00:28:31;;;;;;;13.98;4.17;;;;;;;;;;1726061;83;20912;-81
2022/08/15 00:30:57;;;;;;;7.53;3.80;;;;;;;;;;1725781;81;20936;-82
2022/08/15 00:33:24;;;;;;;9.73;4.00;;;;;;;;;;1736831;82;21690;-81
2022/08/15 00:35:51;;;;;;;12.07;4.33;;;;;;;;;;1743762;82;21816;-82
2022/08/15 00:38:19;;;;;;;13.62;4.05;;;;;;;;;;1748175;82;21648;-82
2022/08/15 00:43:41;;;;;;;10.93;4.70;;;;;;;;;;1748542;82;28651;-82
2022/08/15 00:46:10;;;;;;;12.00;4.50;;;;;;;;;;1748268;82;21621;-81
2022/08/15 00:48:42;;;;;;;10.85;4.55;;;;;;;;;;1748360;82;21138;-81
2022/08/15 00:51:32;;;;;;;10.55;4.08;;;;;;;;;;1774704;80;20984;-82
2022/08/15 00:54:02;;;;;;;12.58;4.42;;;;;;;;;;1712345;83;21006;-81
2022/08/15 00:56:30;;;;;;;10.25;4.30;;;;;;;;;;1712045;83;21559;-81
2022/08/15 00:58:56;;;;;;;7.05;3.85;;;;;;;;;;1712251;83;21076;-81
2022/08/15 01:01:22;;;;;;;11.28;4.30;;;;;;;;;;1712405;83;20893;-81
2022/08/15 01:03:49;;;;;;;13.55;4.42;;;;;;;;;;1712702;83;20980;-80
2022/08/15 01:06:16;;;;;;;11.48;3.67;;;;;;;;;;1712499;83;21043;-81
2022/08/15 01:08:45;;;;;;;8.85;3.90;;;;;;;;;;1712374;83;21056;-81
2022/08/15 01:11:26;;;;;;;12.13;4.03;;;;;;;;;;1712389;83;21504;-82
2022/08/15 01:13:53;;;;;;;14.30;4.40;;;;;;;;;;1708752;83;21897;-82
2022/08/15 01:16:20;;;;;;;12.45;3.87;;;;;;;;;;1712390;83;21116;-81
2022/08/15 01:18:45;;;;;;;12.15;4.33;;;;;;;;;;1712669;83;21099;-81
2022/08/15 01:21:18;;;;;;;11.68;3.92;;;;;;;;;;1712753;83;20905;-82
2022/08/15 01:23:50;;;;;;;10.05;3.95;;;;;;;;;;1713725;83;21162;-81
2022/08/15 01:26:17;;;;;;;8.75;4.40;;;;;;;;;;1714108;83;22479;-81
2022/08/15 01:28:46;;;;;;;7.20;3.80;;;;;;;;;;1693043;83;21055;-81
2022/08/15 01:31:18;;;;;;;12.43;4.47;;;;;;;;;;1737355;81;21519;-81
2022/08/15 01:33:49;;;;;;;9.90;3.92;;;;;;;;;;1752790;81;21042;-80
2022/08/15 01:36:16;;;;;;;8.45;3.80;;;;;;;;;;1752923;81;20991;-81
2022/08/15 01:38:47;;;;;;;12.60;4.37;;;;;;;;;;1752799;81;21133;-82
2022/08/15 01:41:19;;;;;;;10.08;4.03;;;;;;;;;;1752344;81;21023;-82
2022/08/15 01:43:51;;;;;;;12.05;4.35;;;;;;;;;;1752838;81;21022;-80
2022/08/15 01:46:18;;;;;;;9.95;3.62;;;;;;;;;;1654443;86;21086;-81
2022/08/15 01:48:46;;;;;;;12.43;4.30;;;;;;;;;;1654509;86;21380;-82
2022/08/15 01:51:14;;;;;;;12.75;4.67;;;;;;;;;;1654130;86;21628;-82
2022/08/15 01:53:54;;;;;;;10.30;4.00;;;;;;;;;;1654089;83;21072;-82
2022/08/15 01:56:23;;;;;;;6.72;3.98;;;;;;;;;;1651242;86;21179;-81
2022/08/15 01:58:49;;;;;;;13.48;4.15;;;;;;;;;;1654480;86;21492;-82
2022/08/15 02:01:17;;;;;;;13.62;4.25;;;;;;;;;;1653572;86;21202;-80
2022/08/15 02:03:45;;;;;;;12.70;4.20;;;;;;;;;;1652298;86;21168;-81
2022/08/15 02:06:14;;;;;;;14.73;4.25;;;;;;;;;;1652577;86;21091;-82
2022/08/15 02:08:41;;;;;;;14.78;4.37;;;;;;;;;;1648798;86;21064;-81
2022/08/15 02:11:10;;;;;;;7.95;3.75;;;;;;;;;;1652400;86;21055;-81
2022/08/15 02:13:37;;;;;;;12.73;4.08;;;;;;;;;;1652363;86;21500;-82
2022/08/15 02:16:03;;;;;;;11.18;3.80;;;;;;;;;;1627581;86;21103;-81
2022/08/15 02:18:29;;;;;;;12.20;3.95;;;;;;;;;;1652415;86;21091;-81
2022/08/15 02:20:56;;;;;;;17.10;4.30;;;;;;;;;;1652670;86;20854;-82
2022/08/15 02:23:23;;;;;;;15.78;4.40;;;;;;;;;;1652015;86;21040;-80
2022/08/15 02:25:49;;;;;;;10.40;3.60;;;;;;;;;;1627352;86;20965;-82
2022/08/15 02:28:14;;;;;;;10.10;4.30;;;;;;;;;;1652350;86;21934;-81
2022/08/15 02:30:42;;;;;;;8.95;3.77;;;;;;;;;;1648443;86;20968;-81
2022/08/15 02:33:08;;;;;;;10.40;4.45;;;;;;;;;;1629897;86;21076;-81
2022/08/15 02:35:34;;;;;;;10.88;3.72;;;;;;;;;;1664167;80;21555;-81
2022/08/15 02:38:04;;;;;;;13.75;4.37;;;;;;;;;;1787423;80;20904;-81
2022/08/15 02:40:28;;;;;;;11.45;3.50;;;;;;;;;;1782613;80;21015;-81
2022/08/15 02:42:53;;;;;;;22.55;4.75;;;;;;;;;;1787597;80;21019;-81
2022/08/15 02:45:19;;;;;;;14.73;4.25;;;;;;;;;;1787521;80;20790;-81
2022/08/15 02:47:45;;;;;;;7.08;3.47;;;;;;;;;;1787677;80;21648;-82
2022/08/15 02:50:14;;;;;;;10.45;4.03;;;;;;;;;;1784920;80;20893;-82
2022/08/15 02:52:42;;;;;;;12.45;3.80;;;;;;;;;;1774060;80;21091;-82
2022/08/15 02:55:09;;;;;;;7.30;4.08;;;;;;;;;;1774205;80;20972;-81
2022/08/15 02:57:35;;;;;;;7.33;3.95;;;;;;;;;;1774184;80;21055;-80
2022/08/15 03:00:03;;;;;;;12.78;4.30;;;;;;;;;;1772417;80;20964;-82
2022/08/15 03:02:29;;;;;;;12.25;4.35;;;;;;;;;;1759990;80;21040;-82
2022/08/15 03:04:54;;;;;;;16.32;4.60;;;;;;;;;;1755138;80;21086;-82
2022/08/15 03:07:20;;;;;;;16.70;4.12;;;;;;;;;;1760517;80;20890;-80
2022/08/15 03:09:46;;;;;;;9.38;4.12;;;;;;;;;;1757050;80;20849;-81
2022/08/15 03:12:14;;;;;;;14.13;4.12;;;;;;;;;;1765640;80;20990;-81
2022/08/15 03:14:40;;;;;;;14.25;4.65;;;;;;;;;;1758667;80;21108;-81
2022/08/15 03:17:08;;;;;;;17.95;4.17;;;;;;;;;;1759085;80;21938;-81
2022/08/15 03:19:35;;;;;;;15.93;4.55;;;;;;;;;;1758661;80;20991;-82
2022/08/15 03:22:01;;;;;;;11.05;4.25;;;;;;;;;;1753554;80;21062;-82
2022/08/15 03:24:27;;;;;;;8.78;3.77;;;;;;;;;;1764984;80;20838;-82
2022/08/15 03:26:53;;;;;;;13.62;4.28;;;;;;;;;;1755465;80;20995;-82
2022/08/15 03:29:19;;;;;;;11.70;4.72;;;;;;;;;;1760508;80;22032;-82
2022/08/15 03:31:48;;;;;;;11.10;4.37;;;;;;;;;;1762592;80;21051;-82
2022/08/15 03:34:15;;;;;;;15.00;4.15;;;;;;;;;;1758054;80;21068;-82
2022/08/15 03:36:44;;;;;;;13.25;3.80;;;;;;;;;;1763943;80;21057;-82
2022/08/15 03:39:08;;;;;;;15.23;4.28;;;;;;;;;;1757307;80;21494;-81
2022/08/15 03:41:35;;;;;;;12.90;3.90;;;;;;;;;;1762579;80;21036;-82
2022/08/15 03:44:01;;;;;;;12.40;4.30;;;;;;;;;;1760169;80;21611;-82
2022/08/15 03:46:27;;;;;;;8.10;3.90;;;;;;;;;;1756813;80;20987;-83
2022/08/15 03:48:56;;;;;;;10.68;4.67;;;;;;;;;;1750564;80;21081;-83
2022/08/15 03:51:23;;;;;;;15.70;4.87;;;;;;;;;;1756436;80;21629;-82
2022/08/15 03:53:52;;;;;;;12.75;4.55;;;;;;;;;;1758091;81;21133;-84
2022/08/15 03:56:22;;;;;;;13.40;4.65;;;;;;;;;;1757602;81;21054;-84
2022/08/15 03:58:48;;;;;;;12.50;4.47;;;;;;;;;;1758944;81;21027;-83
2022/08/15 04:01:17;;;;;;;13.90;4.65;;;;;;;;;;1761549;81;21670;-85
2022/08/15 04:03:46;;;;;;;17.00;5.55;;;;;;;;;;1758682;81;20989;-83
2022/08/15 04:06:15;;;;;;;13.95;4.65;;;;;;;;;;1733765;82;21068;-83
2022/08/15 04:08:42;;;;;;;13.08;4.83;;;;;;;;;;1693707;84;21047;-84
2022/08/15 04:11:08;;;;;;;14.10;4.60;;;;;;;;;;1697161;84;21060;-85
2022/08/15 04:13:35;;;;;;;9.93;5.33;;;;;;;;;;1661596;86;21406;-84
2022/08/15 04:16:02;;;;;;;20.50;4.85;;;;;;;;;;1732267;82;21515;-83
2022/08/15 04:18:29;;;;;;;12.53;4.78;;;;;;;;;;1730108;82;21241;-82
2022/08/15 04:20:58;;;;;;;16.37;5.15;;;;;;;;;;1729977;82;21071;-82
2022/08/15 04:23:24;;;;;;;11.75;4.60;;;;;;;;;;1686202;84;21220;-83
2022/08/15 04:25:51;;;;;;;21.12;5.22;;;;;;;;;;1683597;83;21043;-83
2022/08/15 04:28:18;;;;;;;11.90;4.80;;;;;;;;;;1684719;83;21070;-84
2022/08/15 04:30:46;;;;;;;13.10;4.90;;;;;;;;;;1661708;84;21123;-83
2022/08/15 04:33:15;;;;;;;12.50;4.50;;;;;;;;;;1683201;84;21618;-83
2022/08/15 04:35:45;;;;;;;14.23;4.55;;;;;;;;;;1684798;84;21067;-83
2022/08/15 04:38:10;;;;;;;13.90;4.87;;;;;;;;;;1631795;86;21067;-84
2022/08/15 04:40:38;;;;;;;13.03;4.42;;;;;;;;;;1631474;86;21006;-84
2022/08/15 04:43:05;;;;;;;17.32;4.78;;;;;;;;;;1631458;86;21157;-84
2022/08/15 04:45:32;;;;;;;11.73;4.55;;;;;;;;;;1633074;86;21600;-83
2022/08/15 04:48:02;;;;;;;13.32;5.17;;;;;;;;;;1630759;86;21082;-83
2022/08/15 04:50:26;;;;;;;27.25;4.95;;;;;;;;;;1630597;86;21567;-83
2022/08/15 04:52:55;;;;;;;11.25;4.35;;;;;;;;;;1638204;85;20971;-84
2022/08/15 04:55:24;;;;;;;15.72;4.65;;;;;;;;;;1637419;86;21098;-82
2022/08/15 04:57:50;;;;;;;14.87;5.12;;;;;;;;;;1633848;86;21226;-82
2022/08/15 05:00:18;;;;;;;15.08;5.42;;;;;;;;;;1637667;86;21693;-84
2022/08/15 05:03:02;;;;;;;14.47;4.83;;;;;;;;;;1640557;85;21098;-84
2022/08/15 05:05:30;;;;;;;14.20;5.08;;;;;;;;;;1654850;85;22367;-85
2022/08/15 05:07:56;;;;;;;20.00;4.78;;;;;;;;;;1659734;85;21130;-83
2022/08/15 05:10:22;;;;;;;13.45;4.72;;;;;;;;;;1657336;86;20907;-83
2022/08/15 05:12:48;;;;;;;16.00;4.70;;;;;;;;;;1656181;86;21001;-84
2022/08/15 05:15:16;;;;;;;10.93;4.12;;;;;;;;;;1658237;86;20986;-82
2022/08/15 05:17:42;;;;;;;14.87;4.22;;;;;;;;;;1662894;85;21073;-81
2022/08/15 05:20:09;;;;;;;28.85;4.95;;;;;;;;;;1675600;83;21195;-82
2022/08/15 05:22:34;;;;;;;35.92;5.50;;;;;;;;;;1685373;83;21059;-82
2022/08/15 05:25:00;;;;;;;22.07;4.53;;;;;;;;;;1667416;84;20921;-83
2022/08/15 05:27:26;;;;;;;20.30;4.45;;;;;;;;;;1683515;83;20995;-83
2022/08/15 05:29:52;;;;;;;33.35;5.37;;;;;;;;;;1651685;85;20913;-83
2022/08/15 05:32:19;;;;;;;13.85;4.80;;;;;;;;;;1684154;84;39407;-83
2022/08/15 05:34:47;;;;;;;27.48;5.33;;;;;;;;;;1703778;80;20983;-81
2022/08/15 05:37:14;;;;;;;12.50;4.25;;;;;;;;;;1645142;86;21162;-82
2022/08/15 05:39:41;;;;;;;14.10;4.60;;;;;;;;;;1637600;87;21563;-83
2022/08/15 05:42:27;;;;;;;20.08;4.78;;;;;;;;;;1634655;86;21095;-85
2022/08/15 05:45:17;;;;;;;11.95;4.28;;;;;;;;;;1624724;86;22015;-83
2022/08/15 05:47:49;;;;;;;14.75;4.17;;;;;;;;;;1572409;89;21045;-84
2022/08/15 05:50:25;;;;;;;12.23;4.50;;;;;;;;;;1564626;90;21110;-82
2022/08/15 05:52:57;;;;;;;16.67;5.05;;;;;;;;;;1510770;94;21114;-84
2022/08/15 05:55:55;;;;;;;20.30;4.50;;;;;;;;;;1517045;94;21139;-85
2022/08/15 05:58:40;;;;;;;14.40;5.10;;;;;;;;;;1517159;94;21694;-83
2022/08/15 06:01:09;;;;;;;17.27;5.17;;;;;;;;;;1516920;93;21217;-86
2022/08/15 06:03:37;;;;;;;40.95;6.55;;;;;;;;;;1516953;94;21142;-83
2022/08/15 06:06:06;;;;;;;28.45;5.10;;;;;;;;;;1515551;94;21154;-85
2022/08/15 06:08:35;;;;;;;28.23;5.33;;;;;;;;;;1473223;96;21210;-85
2022/08/15 06:11:10;;;;;;;12.13;4.37;;;;;;;;;;1517023;93;21443;-81
2022/08/15 06:13:39;;;;;;;21.00;4.40;;;;;;;;;;1481776;96;21147;-83
2022/08/15 06:16:08;;;;;;;29.23;5.15;;;;;;;;;;1510822;95;21547;-82
2022/08/15 06:18:35;;;;;;;22.22;4.97;;;;;;;;;;1508505;95;21556;-82
2022/08/15 06:21:29;;;;;;;13.72;4.50;;;;;;;;;;1513289;94;21063;-84
2022/08/15 06:23:59;;;;;;;20.30;5.12;;;;;;;;;;1521426;92;22125;-85
2022/08/15 06:26:31;;;;;;;10.18;4.12;;;;;;;;;;1566482;90;21127;-85
2022/08/15 06:29:10;;;;;;;9.53;4.70;;;;;;;;;;1565342;91;21169;-83
2022/08/15 06:31:38;;;;;;;13.05;4.65;;;;;;;;;;1642823;86;21582;-83
2022/08/15 06:34:17;;;;;;;17.70;4.83;;;;;;;;;;1604112;86;21009;-83
2022/08/15 06:36:59;;;;;;;17.45;5.10;;;;;;;;;;1513175;93;22099;-85
2022/08/15 06:39:31;;;;;;;20.52;4.72;;;;;;;;;;1525671;93;21137;-83
2022/08/15 06:42:07;;;;;;;20.62;5.58;;;;;;;;;;1527755;92;21185;-85
2022/08/15 06:44:37;;;;;;;12.18;4.70;;;;;;;;;;1532514;93;22219;-83
2022/08/15 06:47:05;;;;;;;17.37;5.30;;;;;;;;;;1535795;93;21110;-84
2022/08/15 06:49:40;;;;;;;10.00;4.58;;;;;;;;;;1529287;93;22017;-85
2022/08/15 06:52:07;;;;;;;18.20;4.37;;;;;;;;;;1525939;92;21087;-84
2022/08/15 06:54:35;;;;;;;17.60;4.80;;;;;;;;;;1531690;91;21195;-83
2022/08/15 06:57:08;;;;;;;16.45;4.70;;;;;;;;;;1532809;92;21110;-83
2022/08/15 06:59:59;;;;;;;12.53;5.03;;;;;;;;;;1532092;92;21088;-84
2022/08/15 07:02:43;;;;;;;15.45;4.85;;;;;;;;;;1534024;92;21168;-86
2022/08/15 07:05:25;;;;;;;10.72;4.62;;;;;;;;;;1532077;93;21127;-84
2022/08/15 07:08:00;;;;;;;15.23;4.50;;;;;;;;;;1513576;93;21178;-85
2022/08/15 07:10:33;;;;;;;14.28;4.97;;;;;;;;;;1533416;93;21183;-86
2022/08/15 07:13:13;;;;;;;16.05;4.72;;;;;;;;;;1537822;86;21032;-84
2022/08/15 07:15:59;;;;;;;10.93;4.90;;;;;;;;;;1638848;84;21696;-83
2022/08/15 07:18:40;;;;;;;10.80;4.72;;;;;;;;;;1638720;84;21686;-87
2022/08/15 07:21:17;;;;;;;16.05;4.37;;;;;;;;;;1608094;89;21668;-84
2022/08/15 07:24:03;;;;;;;10.10;4.78;;;;;;;;;;1607843;89;21140;-83
2022/08/15 07:26:31;;;;;;;17.27;4.62;;;;;;;;;;1603124;89;21066;-84
2022/08/15 07:28:59;;;;;;;15.23;4.47;;;;;;;;;;1608211;89;21112;-86
2022/08/15 07:31:31;;;;;;;20.70;5.33;;;;;;;;;;1639247;86;21257;-85
2022/08/15 07:34:06;;;;;;;19.23;4.90;;;;;;;;;;1653432;86;21068;-85
2022/08/15 07:36:34;;;;;;;15.30;5.03;;;;;;;;;;1628655;87;21114;-84
2022/08/15 07:39:02;;;;;;;30.37;5.75;;;;;;;;;;1627858;87;21018;-83
2022/08/15 07:41:33;;;;;;;17.55;5.55;;;;;;;;;;1563936;90;21173;-82
2022/08/15 07:44:02;;;;;;;19.30;5.30;;;;;;;;;;1576113;90;21017;-84
2022/08/15 07:46:40;;;;;;;14.53;4.60;;;;;;;;;;1577375;90;21157;-82
2022/08/15 07:49:20;;;;;;;12.43;4.70;;;;;;;;;;1577559;90;21188;-84
2022/08/15 07:52:08;;;;;;;11.73;4.62;;;;;;;;;;1594734;86;21062;-87
2022/08/15 07:54:43;;;;;;;13.95;4.85;;;;;;;;;;1646700;86;21194;-89
2022/08/15 07:57:30;;;;;;;11.30;4.80;;;;;;;;;;1650086;85;21582;-90
2022/08/15 08:00:17;;;;;;;15.45;5.10;;;;;;;;;;1677680;84;21044;-90
2022/08/15 08:02:58;;;;;;;26.33;4.58;;;;;;;;;;1676223;84;21303;-88
2022/08/15 08:05:27;;;;;;;18.55;5.00;;;;;;;;;;1672432;84;21506;-85
2022/08/15 08:07:53;;;;;;;15.90;4.67;;;;;;;;;;1682908;84;21208;-87
2022/08/15 08:10:29;;;;;;;10.25;4.70;;;;;;;;;;1677062;84;21514;-87
2022/08/15 08:13:14;;;;;;;19.30;5.33;;;;;;;;;;1678349;84;21088;-89
2022/08/15 08:15:47;;;;;;;20.27;4.95;;;;;;;;;;1676215;84;20975;-92
2022/08/15 08:18:33;;;;;;;15.90;5.00;;;;;;;;;;1692295;82;20983;-91
2022/08/15 08:21:06;;;;;;;11.85;5.22;;;;;;;;;;1736557;81;21139;-90
2022/08/15 08:23:37;;;;;;;13.30;5.37;;;;;;;;;;1744203;82;20974;-92
2022/08/15 08:26:30;;;;;;;14.10;5.17;;;;;;;;;;1735483;82;21137;-93
2022/08/15 08:29:06;;;;;;;9.98;4.95;;;;;;;;;;1734935;82;21796;-93
2022/08/15 08:32:09;;;;;;;14.90;5.35;;;;;;;;;;1737534;82;21074;-92
2022/08/15 08:34:40;;;;;;;13.80;5.10;;;;;;;;;;1753308;80;21486;-92
2022/08/15 08:37:24;;;;;;;14.57;5.53;;;;;;;;;;1759395;80;21036;-92
2022/08/15 08:43:00;;;;;;;19.45;5.55;;;;;;;;;;1758429;80;21043;-93
2022/08/15 08:45:43;;;;;;;19.55;5.30;;;;;;;;;;1756775;79;21052;-94
2022/08/15 08:48:47;;;;;;;17.82;5.25;;;;;;;;;;1758400;80;21105;-94
2022/08/15 08:51:46;;;;;;;16.95;5.28;;;;;;;;;;1657936;85;21095;-95
2022/08/15 08:54:15;;;;;;;15.18;5.08;;;;;;;;;;1660209;85;21561;-93
2022/08/15 08:56:45;;;;;;;31.95;6.83;;;;;;;;;;1665152;85;21171;-94
2022/08/15 08:59:24;;;;;;;21.23;5.37;;;;;;;;;;1572340;90;21128;-93
2022/08/15 09:01:54;;;;;;;9.60;4.53;;;;;;;;;;1555251;90;21212;-96
2022/08/15 09:04:23;;;;;;;28.45;5.67;;;;;;;;;;1538165;91;21104;-92
2022/08/15 09:06:51;;;;;;;33.63;5.53;;;;;;;;;;1520960;93;21097;-95
2022/08/15 09:09:25;;;;;;;29.25;5.97;;;;;;;;;;1522826;93;21062;-94
2022/08/15 09:12:02;;;;;;;24.23;5.35;;;;;;;;;;1521789;93;21249;-88
2022/08/15 09:14:37;;;;;;;15.23;6.33;;;;;;;;;;1519751;93;21187;-88
2022/08/15 09:17:06;;;;;;;18.05;5.75;;;;;;;;;;1522387;93;21696;-92
2022/08/15 09:19:35;;;;;;;18.55;6.75;;;;;;;;;;1521517;93;21037;-87
2022/08/15 09:22:01;;;;;;;23.10;4.75;;;;;;;;;;1509552;93;21075;-91
2022/08/15 09:24:27;;;;;;;14.90;5.00;;;;;;;;;;1535968;88;21086;-89
2022/08/15 09:27:10;;;;;;;16.87;4.47;;;;;;;;;;1593284;88;21109;-92
2022/08/15 09:29:42;;;;;;;27.07;8.10;;;;;;;;;;1503751;93;21125;-93
2022/08/15 09:32:24;;;;;;;30.57;7.87;;;;;;;;;;1501716;94;21192;-93
2022/08/15 09:35:14;;;;;;;31.02;7.42;;;;;;;;;;1458373;97;21126;-96
2022/08/15 09:38:00;;;;;;;13.70;5.12;;;;;;;;;;1440300;99;21769;-92
2022/08/15 09:40:38;;;;;;;63.33;8.20;;;;;;;;;;1439014;99;21315;-92
2022/08/15 09:43:27;;;;;;;20.15;5.58;;;;;;;;;;1439908;98;21662;-89
2022/08/15 09:46:05;;;;;;;14.85;5.37;;;;;;;;;;1435777;98;21158;-91
2022/08/15 09:49:08;;;;;;;17.65;5.47;;;;;;;;;;1438258;99;22513;-87
2022/08/15 09:51:38;;;;;;;;;;;;;;;;;;1441038;98;21160;-89
2022/08/15 09:54:23;;;;;;;11.68;4.75;;;;;;;;;;1435898;99;21167;-89
2022/08/15 09:56:46;;;;;;;;;;;;;;;;;;1454104;97;21128;-88
2022/08/15 09:59:20;;;;;;;16.40;5.12;;;;;;;;;;1460008;97;20495;-87
2022/08/15 10:01:58;;;;;;;15.98;5.00;;;;;;;;;;1459492;97;21100;-84
2022/08/15 10:04:40;;;;;;;10.65;5.08;;;;;;;;;;1441429;97;21153;-83
2022/08/15 10:07:10;;;;;;;11.80;5.15;;;;;;;;;;1453824;95;27000;-85
2022/08/15 10:09:38;;;;;;;10.43;5.15;;;;;;;;;;1532627;88;21206;-84
2022/08/15 10:12:11;;;;;;;10.15;5.15;;;;;;;;;;1713659;80;21015;-83
2022/08/15 10:14:43;;;;;;;10.75;4.92;;;;;;;;;;1757248;80;21094;-83
2022/08/15 10:17:29;;;;;;;19.00;5.47;;;;;;;;;;1760162;80;21041;-84
2022/08/15 10:19:56;;;;;;;15.78;5.33;;;;;;;;;;1679612;84;21175;-86
2022/08/15 10:22:25;;;;;;;18.92;5.30;;;;;;;;;;1680754;84;21058;-84
2022/08/15 10:25:17;;;;;;;19.32;5.87;;;;;;;;;;1670539;85;21560;-85
2022/08/15 10:28:11;;;;;;;10.38;4.87;;;;;;;;;;1679425;85;21046;-86
2022/08/15 10:33:27;;;;;;;22.10;4.90;;;;;;;;;;1595896;88;21115;-86
2022/08/15 10:35:55;;;;;;;15.70;5.85;;;;;;;;;;1596782;88;21151;-85
2022/08/15 10:38:25;;;;;;;21.87;5.12;;;;;;;;;;1596886;88;21630;-84
2022/08/15 10:41:16;;;;;;;18.62;5.40;;;;;;;;;;1593725;88;21019;-85
2022/08/15 10:44:06;;;;;;;21.00;6.17;;;;;;;;;;1596899;88;21203;-85
2022/08/15 10:46:59;;;;;;;11.43;5.35;;;;;;;;;;1549316;91;21134;-85
2022/08/15 10:49:41;;;;;;;20.72;6.20;;;;;;;;;;1553835;91;21075;-85
2022/08/15 10:52:18;;;;;;;12.60;5.17;;;;;;;;;;1548084;91;21173;-86
2022/08/15 10:55:19;;;;;;;20.82;5.37;;;;;;;;;;1532366;92;21715;-86
2022/08/15 10:57:48;;;;;;;8.73;4.90;;;;;;;;;;1593088;88;21575;-87
2022/08/15 11:00:17;;;;;;;13.43;5.47;;;;;;;;;;1603888;88;21119;-86
2022/08/15 11:02:49;;;;;;;22.60;5.58;;;;;;;;;;1567180;90;21188;-86
2022/08/15 11:05:19;;;;;;;14.30;5.58;;;;;;;;;;1587731;88;21189;-86
2022/08/15 11:07:51;;;;;;;16.00;6.08;;;;;;;;;;1588033;88;21133;-87
2022/08/15 11:10:19;;;;;;;11.53;6.03;;;;;;;;;;1538346;91;21647;-85
2022/08/15 11:12:48;;;;;;;22.55;5.47;;;;;;;;;;1558819;91;21335;-87
2022/08/15 11:15:27;;;;;;;17.35;5.60;;;;;;;;;;1570879;91;21547;-86
2022/08/15 11:18:00;;;;;;;16.10;6.25;;;;;;;;;;1536060;92;21124;-85
2022/08/15 11:20:29;;;;;;;20.43;6.03;;;;;;;;;;1525895;92;21116;-84
2022/08/15 11:22:58;;;;;;;18.50;6.15;;;;;;;;;;1530947;90;21099;-86
2022/08/15 11:25:32;;;;;;;32.93;6.25;;;;;;;;;;1560126;90;21372;-87
2022/08/15 11:28:02;;;;;;;15.75;5.78;;;;;;;;;;1559886;90;21099;-85
2022/08/15 11:30:30;;;;;;;20.05;6.58;;;;;;;;;;1597446;88;21064;-85
2022/08/15 11:32:59;;;;;;;17.60;6.03;;;;;;;;;;1617715;88;21122;-84
2022/08/15 11:35:28;;;;;;;34.33;7.45;;;;;;;;;;1611483;88;21617;-86
2022/08/15 11:37:57;;;;;;;54.27;8.95;;;;;;;;;;1617620;88;21105;-86
2022/08/15 11:40:32;;;;;;;19.60;6.00;;;;;;;;;;1617693;88;21420;-85
2022/08/15 11:42:59;;;;;;;46.55;6.92;;;;;;;;;;1566061;91;21297;-85
2022/08/15 11:45:29;;;;;;;29.48;5.03;;;;;;;;;;1565823;91;21119;-84
2022/08/15 11:47:56;;;;;;;32.83;5.87;;;;;;;;;;1475020;97;21241;-83
2022/08/15 11:50:31;;;;;;;30.97;6.22;;;;;;;;;;1477530;97;21217;-83
2022/08/15 11:53:01;;;;;;;47.85;6.47;;;;;;;;;;1478895;95;21127;-85
2022/08/15 11:55:33;;;;;;;38.35;6.40;;;;;;;;;;1496502;95;21703;-84
2022/08/15 11:58:05;;;;;;;21.90;5.40;;;;;;;;;;1504599;95;21089;-82
2022/08/15 12:00:40;;;;;;;20.60;5.05;;;;;;;;;;1504810;95;21165;-83
2022/08/15 12:03:24;;;;;;;11.80;4.97;;;;;;;;;;1504518;95;21198;-85
2022/08/15 12:05:52;;;;;;;17.80;4.42;;;;;;;;;;1504285;95;21023;-84
2022/08/15 12:08:25;;;;;;;20.27;5.12;;;;;;;;;;1523736;94;21144;-84
2022/08/15 12:10:51;;;;;;;30.48;6.20;;;;;;;;;;1499891;95;21666;-82
2022/08/15 12:13:17;;;;;;;27.00;6.33;;;;;;;;;;1499490;95;21639;-85
2022/08/15 12:15:44;;;;;;;18.50;4.85;;;;;;;;;;1499910;95;21265;-85
2022/08/15 12:18:24;;;;;;;15.40;4.87;;;;;;;;;;1499642;95;21226;-84
2022/08/15 12:21:03;;;;;;;15.45;5.08;;;;;;;;;;1499697;95;21052;-84
2022/08/15 12:23:35;;;;;;;46.18;6.20;;;;;;;;;;1499462;95;21187;-83
2022/08/15 12:26:02;;;;;;;;;;;;;;;;;;1502110;94;21169;-85
2022/08/15 12:28:30;;;;;;;19.85;5.20;;;;;;;;;;1499758;95;21100;-85
2022/08/15 12:31:17;;;;;;;14.10;4.92;;;;;;;;;;1499755;95;21095;-84
2022/08/15 12:33:44;;;;;;;13.93;5.08;;;;;;;;;;1500673;94;21067;-85
2022/08/15 12:36:11;;;;;;;14.90;5.28;;;;;;;;;;1520050;94;21080;-85
2022/08/15 12:38:39;;;;;;;13.20;5.42;;;;;;;;;;1533810;89;21139;-85
2022/08/15 12:41:06;;;;;;;33.63;6.55;;;;;;;;;;1583395;89;22001;-85
2022/08/15 12:43:32;;;;;;;25.12;7.35;;;;;;;;;;1581365;89;21092;-85
2022/08/15 12:46:00;;;;;;;34.67;6.95;;;;;;;;;;1618282;87;21048;-85
2022/08/15 12:48:28;;;;;;;23.90;7.72;;;;;;;;;;1639571;86;21083;-84
2022/08/15 12:50:55;;;;;;;25.95;8.53;;;;;;;;;;1646231;87;21087;-85
2022/08/15 12:53:21;;;;;;;32.03;8.38;;;;;;;;;;1648213;85;21542;-84
2022/08/15 12:55:48;;;;;;;37.23;8.20;;;;;;;;;;1652933;86;21020;-86
2022/08/15 12:58:16;;;;;;;16.35;7.05;;;;;;;;;;1655874;86;21069;-87
2022/08/15 13:00:43;;;;;;;22.75;7.40;;;;;;;;;;1654065;85;21044;-85
2022/08/15 13:03:19;;;;;;;26.60;6.67;;;;;;;;;;1629031;87;20964;-84
2022/08/15 13:05:48;;;;;;;16.37;6.53;;;;;;;;;;1532572;93;21252;-86
2022/08/15 13:08:14;;;;;;;30.88;8.23;;;;;;;;;;1494061;95;21105;-84
2022/08/15 13:10:39;;;;;;;17.17;6.50;;;;;;;;;;1509613;95;20930;-83
2022/08/15 13:13:05;;;;;;;22.02;5.97;;;;;;;;;;1509422;95;21403;-85
2022/08/15 13:15:31;;;;;;;19.07;6.42;;;;;;;;;;1509581;95;21127;-86
2022/08/15 13:17:59;;;;;;;23.27;6.78;;;;;;;;;;1509341;95;21980;-84
2022/08/15 13:25:55;;;;;;;23.27;7.42;;;;;;;;;;1509138;94;21113;-87
2022/08/15 13:28:21;;;;;;;17.35;7.30;;;;;;;;;;1509381;95;21129;-86
2022/08/15 13:30:49;;;;;;;33.48;7.92;;;;;;;;;;1509623;95;21154;-84
2022/08/15 13:33:15;;;;;;;24.25;8.40;;;;;;;;;;1509115;95;21040;-86
2022/08/15 13:35:41;;;;;;;22.10;7.95;;;;;;;;;;1509665;95;20970;-86
2022/08/15 13:38:07;;;;;;;20.95;7.53;;;;;;;;;;1509368;95;21146;-83
2022/08/15 13:40:33;;;;;;;30.97;7.78;;;;;;;;;;1509173;95;21681;-84
2022/08/15 13:43:01;;;;;;;17.98;7.22;;;;;;;;;;1509401;95;21251;-85
2022/08/15 13:45:27;;;;;;;20.85;7.90;;;;;;;;;;1509332;95;21137;-85
2022/08/15 13:47:54;;;;;;;18.40;7.30;;;;;;;;;;1509276;95;21113;-84
2022/08/15 13:50:21;;;;;;;19.73;6.25;;;;;;;;;;1509349;93;21213;-84
2022/08/15 13:52:49;;;;;;;21.65;6.65;;;;;;;;;;1510841;93;21554;-84
2022/08/15 13:55:14;;;;;;;20.45;6.90;;;;;;;;;;1528166;93;21689;-86
2022/08/15 13:57:40;;;;;;;27.15;6.65;;;;;;;;;;1528618;93;20962;-87
2022/08/15 14:00:11;;;;;;;14.63;5.03;;;;;;;;;;1528626;93;20974;-89
2022/08/15 14:02:41;;;;;;;101.80;10.20;;;;;;;;;;1574590;89;22156;-89
2022/08/15 14:05:09;;;;;;;17.37;5.65;;;;;;;;;;1663193;82;20996;-89
2022/08/15 14:07:36;;;;;;;25.40;5.08;;;;;;;;;;1744270;81;21308;-91
2022/08/15 14:10:03;;;;;;;22.37;4.85;;;;;;;;;;1712390;81;21019;-90
2022/08/15 14:12:29;;;;;;;17.77;4.72;;;;;;;;;;1711559;82;21038;-93
2022/08/15 14:14:55;;;;;;;13.53;5.37;;;;;;;;;;1710592;83;20856;-88
2022/08/15 14:17:20;;;;;;;14.58;4.62;;;;;;;;;;1710369;83;20905;-94
2022/08/15 14:19:47;;;;;;;15.23;4.40;;;;;;;;;;1682415;83;21833;-94
2022/08/15 14:22:14;;;;;;;11.43;4.60;;;;;;;;;;1710288;83;21091;-92
2022/08/15 14:24:40;;;;;;;14.95;4.40;;;;;;;;;;1710331;83;21662;-92
2022/08/15 14:27:05;;;;;;;12.88;4.03;;;;;;;;;;1710511;83;20984;-90
2022/08/15 14:29:41;;;;;;;12.75;4.50;;;;;;;;;;1710189;83;20940;-90
2022/08/15 14:32:12;;;;;;;15.05;4.80;;;;;;;;;;1710351;83;22030;-89
2022/08/15 14:34:40;;;;;;;13.08;5.10;;;;;;;;;;1710812;83;21402;-92
2022/08/15 14:37:08;;;;;;;9.73;4.60;;;;;;;;;;1710614;83;20972;-91
2022/08/15 14:39:34;;;;;;;14.93;4.62;;;;;;;;;;1710986;83;21102;-89
2022/08/15 14:42:01;;;;;;;20.82;4.83;;;;;;;;;;1710632;83;21016;-91
2022/08/15 14:44:27;;;;;;;11.33;4.45;;;;;;;;;;1710927;83;21816;-88
2022/08/15 14:46:52;;;;;;;15.70;5.05;;;;;;;;;;1710744;83;21733;-90
2022/08/15 14:49:20;;;;;;;16.70;5.45;;;;;;;;;;1710849;83;20908;-88
2022/08/15 14:51:45;;;;;;;12.00;5.85;;;;;;;;;;1710559;83;21083;-91
2022/08/15 14:56:44;;;;;;;14.78;5.83;;;;;;;;;;1755339;81;21050;-92
2022/08/15 14:59:11;;;;;;;20.60;6.78;;;;;;;;;;1755387;81;21130;-92
2022/08/15 15:01:37;;;;;;;19.52;8.33;;;;;;;;;;1755857;81;21050;-88
2022/08/15 15:04:03;;;;;;;18.82;9.15;;;;;;;;;;1755872;81;21025;-84
2022/08/15 15:06:29;;;;;;;24.15;9.50;;;;;;;;;;1726366;81;21062;-85
2022/08/15 15:08:56;;;;;;;26.23;9.70;;;;;;;;;;1741116;81;21224;-83
2022/08/15 15:11:22;;;;;;;23.45;9.25;;;;;;;;;;1738127;82;21094;-84